createdAt,value
2023-11-16T00:00:03.405Z,75.24
2023-11-16T00:02:31.792Z,75.11
2023-11-16T00:04:58.994Z,74.84
2023-11-16T00:07:26.504Z,74.98
2023-11-16T00:09:53.598Z,74.95
2023-11-16T00:12:21.718Z,74.73
2023-11-16T00:14:49.874Z,74.85
2023-11-16T00:17:16.982Z,74.50
2023-11-16T00:19:44.546Z,74.22
2023-11-16T00:22:11.497Z,74.14
2023-11-16T00:24:38.469Z,73.93
2023-11-16T00:27:05.746Z,73.55
2023-11-16T00:29:34.014Z,73.52
2023-11-16T00:32:01.051Z,73.60
2023-11-16T00:34:28.229Z,73.61
2023-11-16T00:36:56.804Z,73.74
2023-11-16T00:39:23.884Z,73.55
2023-11-16T00:41:50.931Z,74.27
2023-11-16T00:44:21.456Z,74.60
2023-11-16T00:46:50.853Z,74.92
2023-11-16T00:49:18.052Z,75.04
2023-11-16T00:51:45.031Z,75.11
2023-11-16T00:54:15.282Z,75.35
2023-11-16T00:56:42.404Z,75.46
2023-11-16T00:59:11.649Z,75.34
2023-11-16T01:01:41.469Z,75.54
2023-11-16T01:04:13.519Z,75.85
2023-11-16T01:06:41.114Z,76.22
2023-11-16T01:09:08.662Z,76.91
2023-11-16T01:11:38.214Z,77.81
2023-11-16T01:14:05.468Z,78.86
2023-11-16T01:16:42.107Z,79.35
2023-11-16T01:19:14.076Z,79.36
2023-11-16T01:21:46.017Z,79.58
2023-11-16T01:24:13.228Z,79.37
2023-11-16T01:26:43.049Z,79.41
2023-11-16T01:29:11.442Z,79.67
2023-11-16T01:31:41.941Z,79.94
2023-11-16T01:34:11.842Z,80.50
2023-11-16T01:36:39.278Z,81.22
2023-11-16T01:39:07.122Z,81.43
2023-11-16T01:41:34.147Z,81.84
2023-11-16T01:44:04.126Z,82.45
2023-11-16T01:46:35.440Z,82.79
2023-11-16T01:49:03.213Z,82.35
2023-11-16T01:51:31.565Z,82.30
2023-11-16T01:54:00.283Z,82.43
2023-11-16T01:56:37.758Z,82.50
2023-11-16T01:59:05.026Z,82.73
2023-11-16T02:01:32.522Z,82.84
2023-11-16T02:03:59.678Z,82.91
2023-11-16T02:06:27.542Z,82.91
2023-11-16T02:08:54.989Z,82.97
2023-11-16T02:11:22.843Z,83.09
2023-11-16T02:13:52.940Z,83.17
2023-11-16T02:16:20.602Z,82.79
2023-11-16T02:18:48.561Z,82.46
2023-11-16T02:21:15.621Z,82.58
2023-11-16T02:23:43.667Z,82.82
2023-11-16T02:26:11.285Z,82.64
2023-11-16T02:28:38.487Z,82.06
2023-11-16T02:31:05.900Z,82.47
2023-11-16T02:33:34.575Z,82.07
2023-11-16T02:36:01.523Z,82.00
2023-11-16T02:38:29.046Z,81.48
2023-11-16T02:40:55.966Z,81.09
2023-11-16T02:43:23.332Z,80.33
2023-11-16T02:45:50.184Z,79.47
2023-11-16T02:48:17.271Z,78.79
2023-11-16T02:50:44.591Z,78.20
2023-11-16T02:53:11.814Z,77.33
2023-11-16T02:55:38.728Z,77.13
2023-11-16T02:58:07.716Z,76.49
2023-11-16T03:00:35.865Z,76.09
2023-11-16T03:03:04.649Z,76.00
2023-11-16T03:05:31.588Z,76.03
2023-11-16T03:07:58.537Z,75.36
2023-11-16T03:10:26.601Z,75.28
2023-11-16T03:12:53.837Z,75.45
2023-11-16T03:15:21.042Z,75.20
2023-11-16T03:17:48.272Z,74.99
2023-11-16T03:20:19.080Z,75.48
2023-11-16T03:22:46.088Z,75.25
2023-11-16T03:25:13.060Z,75.02
2023-11-16T03:27:40.024Z,75.41
2023-11-16T03:30:07.684Z,75.57
2023-11-16T03:32:34.939Z,75.72
2023-11-16T03:35:01.868Z,75.56
2023-11-16T03:37:33.104Z,75.40
2023-11-16T03:40:00.183Z,75.63
2023-11-16T03:42:27.643Z,75.71
2023-11-16T03:44:54.574Z,76.18
2023-11-16T03:47:21.534Z,76.15
2023-11-16T03:49:48.780Z,76.24
2023-11-16T03:52:16.066Z,76.21
2023-11-16T03:54:44.143Z,75.90
2023-11-16T03:57:12.699Z,75.77
2023-11-16T03:59:39.661Z,75.60
2023-11-16T04:02:06.766Z,76.05
2023-11-16T04:04:33.982Z,75.97
2023-11-16T04:07:01.210Z,75.76
2023-11-16T04:09:28.263Z,75.68
2023-11-16T04:11:55.239Z,75.66
2023-11-16T04:14:22.197Z,75.87
2023-11-16T04:16:55.035Z,75.49
2023-11-16T04:19:22.812Z,75.34
2023-11-16T04:21:51.336Z,75.16
2023-11-16T04:24:19.602Z,75.09
2023-11-16T04:26:50.294Z,75.01
2023-11-16T04:29:17.739Z,74.86
2023-11-16T04:31:45.618Z,74.78
2023-11-16T04:34:13.675Z,74.13
2023-11-16T04:36:43.444Z,73.98
2023-11-16T04:39:10.449Z,73.96
2023-11-16T04:41:37.447Z,74.06
2023-11-16T04:44:06.404Z,73.91
2023-11-16T04:46:33.635Z,74.16
2023-11-16T04:49:01.777Z,74.21
2023-11-16T04:51:29.043Z,74.08
2023-11-16T04:53:57.562Z,74.37
2023-11-16T04:56:24.472Z,74.41
2023-11-16T04:58:51.758Z,74.40
2023-11-16T05:01:18.928Z,74.32
2023-11-16T05:03:46.263Z,74.45
2023-11-16T05:06:15.010Z,74.94
2023-11-16T05:08:44.953Z,74.83
2023-11-16T05:11:12.226Z,75.19
2023-11-16T05:13:39.177Z,75.08
2023-11-16T05:16:06.465Z,74.91
2023-11-16T05:18:34.063Z,74.82
2023-11-16T05:21:05.719Z,74.92
2023-11-16T05:23:32.775Z,74.89
2023-11-16T05:26:01.297Z,75.09
2023-11-16T05:28:28.413Z,74.91
2023-11-16T05:30:55.533Z,74.94
2023-11-16T05:33:25.845Z,75.36
2023-11-16T05:35:58.102Z,75.41
2023-11-16T05:38:25.330Z,74.95
2023-11-16T05:40:53.716Z,74.90
2023-11-16T05:43:21.567Z,74.96
2023-11-16T05:45:49.080Z,74.83
2023-11-16T05:48:16.959Z,74.67
2023-11-16T05:50:44.886Z,74.71
2023-11-16T05:53:12.858Z,74.42
2023-11-16T05:55:40.359Z,74.15
2023-11-16T05:58:07.826Z,74.41
2023-11-16T06:00:39.068Z,74.09
2023-11-16T06:03:07.492Z,73.91
2023-11-16T06:05:37.092Z,73.77
2023-11-16T06:08:04.798Z,73.56
2023-11-16T06:10:31.918Z,73.58
2023-11-16T06:13:01.028Z,73.57
2023-11-16T06:15:32.070Z,73.19
2023-11-16T06:18:02.950Z,72.91
2023-11-16T06:20:30.955Z,72.94
2023-11-16T06:22:58.355Z,72.78
2023-11-16T06:25:25.399Z,72.54
2023-11-16T06:27:52.622Z,72.58
2023-11-16T06:30:20.373Z,72.35
2023-11-16T06:32:48.998Z,72.45
2023-11-16T06:35:16.180Z,71.97
2023-11-16T06:37:44.877Z,71.90
2023-11-16T06:40:13.269Z,72.01
2023-11-16T06:42:41.569Z,72.04
2023-11-16T06:45:09.471Z,71.51
2023-11-16T06:47:37.090Z,71.31
2023-11-16T06:50:05.500Z,70.64
2023-11-16T06:52:33.041Z,70.48
2023-11-16T06:55:00.604Z,70.11
2023-11-16T06:57:30.581Z,70.03
2023-11-16T06:59:59.297Z,69.56
2023-11-16T07:02:26.330Z,69.30
2023-11-16T07:04:53.234Z,69.19
2023-11-16T07:07:20.209Z,69.15
2023-11-16T07:09:48.408Z,69.19
2023-11-16T07:12:16.916Z,68.22
2023-11-16T07:14:51.539Z,68.88
2023-11-16T07:17:21.483Z,68.94
2023-11-16T07:19:51.269Z,68.57
2023-11-16T07:22:20.077Z,67.92
2023-11-16T07:24:51.173Z,68.51
2023-11-16T07:27:18.401Z,69.27
2023-11-16T07:29:45.812Z,68.60
2023-11-16T07:32:14.599Z,68.20
2023-11-16T07:34:43.236Z,68.40
2023-11-16T07:37:10.571Z,68.80
2023-11-16T07:39:39.054Z,69.37
2023-11-16T07:42:06.755Z,68.62
2023-11-16T07:44:34.035Z,68.46
2023-11-16T07:47:01.690Z,68.39
2023-11-16T07:49:29.220Z,67.94
2023-11-16T07:51:56.959Z,68.05
2023-11-16T07:54:24.146Z,67.64
2023-11-16T07:56:56.710Z,67.19
2023-11-16T07:59:32.929Z,67.13
2023-11-16T08:02:02.827Z,66.49
2023-11-16T08:04:31.367Z,66.38
2023-11-16T08:07:01.082Z,66.10
2023-11-16T08:09:31.312Z,65.97
2023-11-16T08:12:00.682Z,65.30
2023-11-16T08:14:27.744Z,64.94
2023-11-16T08:17:00.296Z,65.07
2023-11-16T08:19:28.420Z,64.99
2023-11-16T08:21:58.514Z,64.58
2023-11-16T08:24:27.843Z,64.57
2023-11-16T08:26:58.152Z,63.46
2023-11-16T08:29:25.971Z,63.40
2023-11-16T08:31:58.621Z,62.92
2023-11-16T08:34:29.517Z,63.54
2023-11-16T08:36:57.472Z,63.62
2023-11-16T08:39:25.403Z,63.45
2023-11-16T08:41:54.736Z,62.61
2023-11-16T08:44:24.375Z,63.92
2023-11-16T08:46:57.939Z,63.48
2023-11-16T08:49:25.290Z,62.98
2023-11-16T08:52:02.658Z,62.99
2023-11-16T08:54:30.812Z,62.20
2023-11-16T08:56:59.616Z,62.18
2023-11-16T08:59:28.006Z,61.59
2023-11-16T09:01:57.855Z,62.44
2023-11-16T09:04:26.058Z,61.59
2023-11-16T09:06:53.867Z,61.34
2023-11-16T09:09:39.848Z,60.49
2023-11-16T09:12:15.046Z,60.72
2023-11-16T09:14:43.491Z,60.35
2023-11-16T09:17:20.371Z,60.90
2023-11-16T09:19:52.178Z,60.29
2023-11-16T09:22:19.742Z,61.00
2023-11-16T09:24:50.318Z,60.72
2023-11-16T09:27:19.394Z,59.33
2023-11-16T09:29:53.623Z,58.72
2023-11-16T09:32:23.013Z,59.46
2023-11-16T09:35:06.178Z,59.44
2023-11-16T09:37:38.479Z,60.11
2023-11-16T09:40:06.837Z,59.42
2023-11-16T09:42:35.829Z,59.88
2023-11-16T09:45:05.331Z,59.93
2023-11-16T09:47:41.898Z,60.69
2023-11-16T09:50:10.394Z,60.29
2023-11-16T09:52:41.243Z,60.35
2023-11-16T09:55:11.462Z,58.95
2023-11-16T09:57:42.871Z,58.56
2023-11-16T10:00:17.230Z,58.81
2023-11-16T10:02:47.390Z,59.00
2023-11-16T10:05:28.401Z,57.38
2023-11-16T10:07:58.536Z,58.29
2023-11-16T10:10:31.304Z,58.79
2023-11-16T10:12:58.449Z,58.05
2023-11-16T10:15:26.489Z,58.16
2023-11-16T10:17:53.839Z,57.78
2023-11-16T10:20:22.322Z,56.79
2023-11-16T10:22:50.146Z,57.83
2023-11-16T10:25:19.096Z,54.72
2023-11-16T10:27:46.161Z,54.92
2023-11-16T10:30:13.917Z,55.76
2023-11-16T10:32:44.033Z,54.78
2023-11-16T10:35:15.968Z,55.60
2023-11-16T10:37:43.854Z,54.97
2023-11-16T10:40:12.261Z,55.00
2023-11-16T10:42:43.951Z,54.17
2023-11-16T10:45:16.055Z,54.33
2023-11-16T10:47:46.626Z,55.36
2023-11-16T10:50:17.467Z,54.72
2023-11-16T10:52:45.233Z,54.32
2023-11-16T10:55:29.496Z,55.46
2023-11-16T10:58:06.389Z,54.48
2023-11-16T11:00:37.179Z,54.48
2023-11-16T11:03:08.367Z,54.73
2023-11-16T11:05:39.683Z,55.20
2023-11-16T11:08:10.469Z,55.94
2023-11-16T11:10:43.015Z,54.21
2023-11-16T11:13:10.300Z,55.60
2023-11-16T11:15:38.628Z,54.35
2023-11-16T11:18:10.607Z,54.71
2023-11-16T11:20:41.834Z,55.59
2023-11-16T11:23:17.617Z,56.07
2023-11-16T11:25:44.753Z,54.55
2023-11-16T11:28:13.113Z,52.44
2023-11-16T11:30:55.812Z,51.03
2023-11-16T11:33:38.110Z,50.52
2023-11-16T11:36:10.206Z,51.95
2023-11-16T11:38:40.234Z,52.19
2023-11-16T11:41:08.714Z,52.00
2023-11-16T11:43:40.237Z,51.78
2023-11-16T11:46:19.971Z,52.29
2023-11-16T11:48:48.376Z,50.59
2023-11-16T11:51:17.994Z,49.47
2023-11-16T11:53:49.624Z,50.59
2023-11-16T11:56:17.418Z,49.57
2023-11-16T11:58:44.699Z,49.93
2023-11-16T12:01:15.116Z,48.66
2023-11-16T12:04:10.199Z,48.81
2023-11-16T12:06:43.983Z,50.06
2023-11-16T12:09:11.443Z,48.47
2023-11-16T12:11:38.458Z,49.42
2023-11-16T12:14:11.968Z,51.05
2023-11-16T12:16:39.272Z,51.91
2023-11-16T12:19:10.742Z,49.50
2023-11-16T12:21:41.211Z,50.36
2023-11-16T12:24:10.828Z,51.91
2023-11-16T12:26:37.655Z,50.94
2023-11-16T12:29:16.973Z,50.19
2023-11-16T12:31:45.381Z,50.83
2023-11-16T12:34:13.948Z,50.13
2023-11-16T12:36:46.011Z,49.72
2023-11-16T12:39:15.460Z,50.08
2023-11-16T12:41:42.894Z,49.48
2023-11-16T12:44:12.285Z,49.50
2023-11-16T12:46:40.591Z,50.88
2023-11-16T12:49:07.575Z,50.83
2023-11-16T12:51:34.740Z,51.28
2023-11-16T12:54:02.098Z,50.07
2023-11-16T12:56:29.444Z,49.53
2023-11-16T12:58:58.489Z,50.88
2023-11-16T13:01:25.833Z,51.73
2023-11-16T13:03:54.267Z,52.96
2023-11-16T13:06:21.678Z,51.22
2023-11-16T13:08:49.678Z,49.64
2023-11-16T13:11:16.877Z,49.13
2023-11-16T13:13:44.285Z,50.02
2023-11-16T13:16:14.241Z,51.04
2023-11-16T13:18:41.511Z,52.42
2023-11-16T13:21:12.705Z,53.09
2023-11-16T13:23:41.380Z,52.45
2023-11-16T13:26:08.333Z,51.91
2023-11-16T13:28:35.286Z,51.84
2023-11-16T13:31:02.649Z,52.20
2023-11-16T13:33:30.111Z,52.95
2023-11-16T13:35:57.065Z,53.47
2023-11-16T13:38:24.706Z,53.87
2023-11-16T13:40:52.011Z,54.66
2023-11-16T13:43:19.131Z,54.63
2023-11-16T13:45:46.545Z,55.30
2023-11-16T13:48:14.308Z,54.78
2023-11-16T13:50:43.124Z,54.52
2023-11-16T13:53:11.612Z,54.37
2023-11-16T13:55:38.489Z,55.27
2023-11-16T13:58:05.484Z,54.84
2023-11-16T14:00:33.748Z,55.27
2023-11-16T14:03:01.050Z,55.09
2023-11-16T14:05:27.992Z,54.69
2023-11-16T14:07:55.154Z,54.92
2023-11-16T14:10:25.079Z,56.27
2023-11-16T14:12:56.505Z,56.16
2023-11-16T14:15:24.653Z,55.24
2023-11-16T14:17:51.935Z,55.98
2023-11-16T14:20:19.171Z,56.61
2023-11-16T14:22:46.421Z,56.54
2023-11-16T14:25:13.551Z,56.19
2023-11-16T14:27:40.600Z,56.22
2023-11-16T14:30:08.348Z,56.42
2023-11-16T14:32:35.492Z,56.37
2023-11-16T14:35:14.046Z,56.62
2023-11-16T14:37:46.883Z,57.02
2023-11-16T14:40:14.846Z,57.63
2023-11-16T14:42:41.969Z,58.18
2023-11-16T14:45:10.554Z,58.21
2023-11-16T14:47:40.040Z,58.78
2023-11-16T14:50:14.577Z,58.82
2023-11-16T14:52:43.873Z,58.97
2023-11-16T14:55:11.373Z,59.21
2023-11-16T14:57:41.656Z,59.58
2023-11-16T15:00:10.045Z,60.22
2023-11-16T15:02:38.244Z,60.56
2023-11-16T15:05:10.950Z,61.10
2023-11-16T15:07:39.856Z,62.02
2023-11-16T15:10:12.549Z,62.13
2023-11-16T15:12:41.127Z,62.36
2023-11-16T15:15:13.368Z,62.55
2023-11-16T15:17:42.121Z,62.68
2023-11-16T15:20:20.160Z,63.00
2023-11-16T15:22:54.148Z,63.00
2023-11-16T15:25:21.275Z,63.46
2023-11-16T15:27:48.956Z,63.69
2023-11-16T15:30:16.933Z,63.79
2023-11-16T15:32:43.985Z,64.27
2023-11-16T15:35:11.555Z,64.36
2023-11-16T15:37:38.630Z,64.14
2023-11-16T15:40:06.495Z,64.28
2023-11-16T15:42:34.471Z,64.62
2023-11-16T15:45:01.926Z,64.92
2023-11-16T15:47:29.282Z,64.89
2023-11-16T15:49:56.239Z,65.08
2023-11-16T15:52:24.442Z,65.09
2023-11-16T15:54:55.168Z,65.32
2023-11-16T15:57:27.740Z,65.10
2023-11-16T15:59:59.909Z,64.73
2023-11-16T16:02:30.897Z,64.69
2023-11-16T16:05:01.372Z,64.34
2023-11-16T16:07:29.045Z,64.45
2023-11-16T16:09:57.615Z,64.86
2023-11-16T16:12:25.050Z,65.01
2023-11-16T16:14:51.875Z,64.95
2023-11-16T16:17:18.807Z,65.34
2023-11-16T16:19:45.685Z,65.62
2023-11-16T16:22:16.426Z,65.63
2023-11-16T16:24:44.242Z,65.80
2023-11-16T16:27:11.705Z,65.93
2023-11-16T16:29:38.904Z,66.44
2023-11-16T16:32:11.433Z,67.24
2023-11-16T16:34:38.315Z,67.56
2023-11-16T16:37:05.427Z,67.81
2023-11-16T16:39:33.655Z,67.78
2023-11-16T16:42:00.588Z,68.50
2023-11-16T16:44:28.554Z,68.89
2023-11-16T16:46:55.621Z,69.72
2023-11-16T16:49:22.667Z,69.86
2023-11-16T16:51:51.656Z,70.91
2023-11-16T16:54:18.572Z,70.75
2023-11-16T16:56:46.500Z,71.24
2023-11-16T16:59:16.240Z,71.28
2023-11-16T17:01:43.754Z,72.03
2023-11-16T17:04:11.288Z,72.58
2023-11-16T17:06:41.358Z,73.03
2023-11-16T17:09:09.444Z,73.45
2023-11-16T17:11:36.599Z,73.53
2023-11-16T17:14:03.689Z,73.96
2023-11-16T17:16:31.388Z,74.10
2023-11-16T17:18:58.399Z,74.11
2023-11-16T17:21:26.013Z,73.94
2023-11-16T17:23:53.360Z,73.92
2023-11-16T17:26:21.101Z,74.14
2023-11-16T17:28:49.979Z,74.05
2023-11-16T17:31:18.981Z,73.48
2023-11-16T17:33:46.539Z,73.68
2023-11-16T17:36:13.957Z,73.20
2023-11-16T17:38:41.213Z,73.07
2023-11-16T17:41:08.313Z,73.00
2023-11-16T17:43:37.305Z,72.96
2023-11-16T17:46:05.127Z,72.79
2023-11-16T17:48:32.357Z,73.05
2023-11-16T17:51:03.467Z,73.09
2023-11-16T17:53:30.847Z,73.35
2023-11-16T17:55:58.224Z,73.48
2023-11-16T17:58:26.456Z,73.98
2023-11-16T18:00:54.148Z,73.74
2023-11-16T18:03:21.334Z,73.97
2023-11-16T18:05:48.998Z,73.78
2023-11-16T18:08:16.025Z,73.73
2023-11-16T18:10:45.569Z,73.82
2023-11-16T18:13:17.708Z,73.87
2023-11-16T18:15:45.574Z,73.58
2023-11-16T18:18:12.809Z,73.88
2023-11-16T18:20:40.641Z,74.27
2023-11-16T18:23:09.780Z,75.06
2023-11-16T18:25:41.124Z,75.82
2023-11-16T18:28:14.556Z,76.54
2023-11-16T18:30:47.625Z,77.14
2023-11-16T18:33:15.905Z,77.80
2023-11-16T18:35:43.355Z,78.80
2023-11-16T18:38:13.839Z,79.08
2023-11-16T18:40:42.312Z,79.49
2023-11-16T18:43:12.519Z,80.32
2023-11-16T18:45:40.600Z,80.29
2023-11-16T18:48:10.980Z,80.25
2023-11-16T18:50:39.060Z,80.76
2023-11-16T18:53:06.287Z,80.83
2023-11-16T18:55:33.404Z,81.15
2023-11-16T18:58:00.575Z,81.23
2023-11-16T19:00:27.839Z,80.84
2023-11-16T19:03:08.740Z,81.00
2023-11-16T19:05:35.948Z,80.83
2023-11-16T19:08:02.894Z,80.49
2023-11-16T19:10:32.004Z,80.27
2023-11-16T19:12:59.322Z,80.38
2023-11-16T19:15:26.772Z,80.26
2023-11-16T19:17:54.420Z,80.15
2023-11-16T19:20:24.894Z,79.85
2023-11-16T19:22:53.309Z,79.68
2023-11-16T19:25:21.087Z,79.63
2023-11-16T19:27:48.611Z,79.56
2023-11-16T19:30:16.385Z,79.65
2023-11-16T19:32:47.968Z,79.53
2023-11-16T19:35:17.374Z,79.20
2023-11-16T19:37:44.527Z,79.32
2023-11-16T19:40:15.712Z,79.26
2023-11-16T19:42:47.025Z,78.89
2023-11-16T19:45:14.611Z,79.28
2023-11-16T19:47:41.585Z,78.91
2023-11-16T19:50:08.980Z,78.84
2023-11-16T19:52:37.871Z,78.74
2023-11-16T19:55:06.043Z,78.76
2023-11-16T19:57:33.634Z,78.78
2023-11-16T20:00:05.440Z,78.73
2023-11-16T20:02:32.638Z,78.43
2023-11-16T20:05:00.891Z,78.61
2023-11-16T20:07:31.370Z,78.55
2023-11-16T20:09:58.331Z,78.65
2023-11-16T20:12:25.495Z,78.93
2023-11-16T20:14:57.626Z,79.29
2023-11-16T20:17:28.008Z,78.98
2023-11-16T20:19:56.549Z,78.59
2023-11-16T20:22:24.508Z,78.55
2023-11-16T20:24:51.459Z,78.80
2023-11-16T20:27:18.768Z,78.86
2023-11-16T20:29:45.790Z,78.95
2023-11-16T20:32:13.335Z,79.11
2023-11-16T20:34:40.391Z,79.01
2023-11-16T20:37:07.444Z,79.01
2023-11-16T20:39:34.988Z,78.72
2023-11-16T20:42:05.351Z,79.26
2023-11-16T20:44:33.766Z,79.25
2023-11-16T20:47:00.923Z,79.10
2023-11-16T20:49:28.300Z,79.32
2023-11-16T20:51:56.545Z,79.37
2023-11-16T20:54:23.721Z,79.25
2023-11-16T20:56:50.724Z,79.45
2023-11-16T20:59:19.001Z,79.57
2023-11-16T21:01:46.243Z,79.64
2023-11-16T21:04:13.424Z,79.87
2023-11-16T21:06:40.748Z,80.20
2023-11-16T21:09:11.134Z,79.84
2023-11-16T21:11:38.883Z,79.69
2023-11-16T21:14:06.172Z,79.59
2023-11-16T21:16:34.207Z,79.67
2023-11-16T21:19:01.275Z,79.42
2023-11-16T21:21:28.508Z,79.23
2023-11-16T21:23:55.438Z,79.21
2023-11-16T21:26:23.200Z,78.99
2023-11-16T21:28:50.176Z,78.88
2023-11-16T21:31:17.265Z,78.97
2023-11-16T21:33:44.369Z,79.10
2023-11-16T21:36:11.710Z,78.66
2023-11-16T21:38:39.370Z,79.12
2023-11-16T21:41:07.626Z,79.03
2023-11-16T21:43:34.713Z,79.00
2023-11-16T21:46:01.849Z,79.07
2023-11-16T21:48:29.535Z,79.05
2023-11-16T21:50:56.437Z,79.12
2023-11-16T21:53:24.065Z,79.31
2023-11-16T21:55:52.042Z,79.38
2023-11-16T21:58:19.098Z,79.40
2023-11-16T22:00:46.077Z,79.24
2023-11-16T22:03:13.058Z,79.55
2023-11-16T22:05:40.300Z,79.42
2023-11-16T22:08:07.147Z,79.56
2023-11-16T22:10:34.031Z,80.05
2023-11-16T22:13:01.153Z,79.97
2023-11-16T22:15:28.065Z,80.52
2023-11-16T22:17:54.949Z,80.32
2023-11-16T22:20:21.909Z,80.34
2023-11-16T22:22:50.241Z,80.60
2023-11-16T22:25:18.515Z,80.02
2023-11-16T22:27:47.544Z,79.83
2023-11-16T22:30:21.275Z,79.97
2023-11-16T22:32:49.214Z,79.67
2023-11-16T22:35:18.976Z,80.03
2023-11-16T22:37:47.514Z,79.44
2023-11-16T22:40:15.630Z,79.80
2023-11-16T22:42:44.325Z,79.66
2023-11-16T22:45:11.688Z,79.45
2023-11-16T22:47:39.242Z,79.12
2023-11-16T22:50:08.951Z,79.13
2023-11-16T22:52:37.222Z,79.03
2023-11-16T22:55:05.202Z,78.66
2023-11-16T22:57:32.335Z,78.42
2023-11-16T22:59:59.234Z,78.69
2023-11-16T23:02:29.242Z,78.65
2023-11-16T23:04:57.689Z,78.65
2023-11-16T23:07:24.916Z,78.18
2023-11-16T23:09:51.936Z,78.33
2023-11-16T23:12:18.830Z,78.08
2023-11-16T23:14:45.986Z,78.16
2023-11-16T23:17:13.276Z,78.26
2023-11-16T23:19:40.591Z,78.42
2023-11-16T23:22:14.258Z,78.77
2023-11-16T23:24:42.738Z,78.60
2023-11-16T23:27:14.176Z,78.63
2023-11-16T23:29:41.822Z,78.78
2023-11-16T23:32:09.136Z,78.74
2023-11-16T23:34:36.896Z,78.58
2023-11-16T23:37:04.852Z,78.76
2023-11-16T23:39:31.816Z,78.62
2023-11-16T23:41:59.341Z,79.22
2023-11-16T23:44:27.265Z,78.66
2023-11-16T23:46:55.554Z,78.47
2023-11-16T23:49:23.412Z,78.51
2023-11-16T23:51:50.545Z,79.08
2023-11-16T23:54:18.465Z,79.10
2023-11-16T23:56:45.576Z,78.90
2023-11-16T23:59:15.345Z,78.86
